sensor_id;sensor_type;location;lat;lon;timestamp;P1;durP1;ratioP1;P2;durP2;ratioP2
67861;SDS011;54665;51.462;6.698;2024-02-16T00:00:31;5.53;;;1.70;;
67861;SDS011;54665;51.462;6.698;2024-02-16T00:02:31;3.50;;;1.40;;
67861;SDS011;54665;51.462;6.698;2024-02-16T00:04:32;2.67;;;1.30;;
67861;SDS011;54665;51.462;6.698;2024-02-16T00:06:32;3.47;;;1.10;;
67861;SDS011;54665;51.462;6.698;2024-02-16T00:08:32;3.37;;;1.30;;
67861;SDS011;54665;51.462;6.698;2024-02-16T00:10:33;4.20;;;1.40;;
67861;SDS011;54665;51.462;6.698;2024-02-16T00:12:33;5.03;;;1.40;;
67861;SDS011;54665;51.462;6.698;2024-02-16T00:14:33;4.73;;;1.33;;
67861;SDS011;54665;51.462;6.698;2024-02-16T00:16:34;4.95;;;1.30;;
67861;SDS011;54665;51.462;6.698;2024-02-16T00:18:34;3.27;;;1.30;;
67861;SDS011;54665;51.462;6.698;2024-02-16T00:20:35;4.60;;;1.10;;
67861;SDS011;54665;51.462;6.698;2024-02-16T00:22:35;2.33;;;1.30;;
67861;SDS011;54665;51.462;6.698;2024-02-16T00:24:35;4.07;;;1.20;;
67861;SDS011;54665;51.462;6.698;2024-02-16T00:26:36;3.70;;;1.30;;
67861;SDS011;54665;51.462;6.698;2024-02-16T00:28:37;3.22;;;1.27;;
67861;SDS011;54665;51.462;6.698;2024-02-16T00:30:37;3.33;;;1.50;;
67861;SDS011;54665;51.462;6.698;2024-02-16T00:32:37;3.27;;;1.23;;
67861;SDS011;54665;51.462;6.698;2024-02-16T00:34:37;4.15;;;1.40;;
67861;SDS011;54665;51.462;6.698;2024-02-16T00:36:38;3.17;;;1.37;;
67861;SDS011;54665;51.462;6.698;2024-02-16T00:38:38;4.10;;;1.50;;
67861;SDS011;54665;51.462;6.698;2024-02-16T00:40:38;3.50;;;1.50;;
67861;SDS011;54665;51.462;6.698;2024-02-16T00:42:39;3.00;;;1.30;;
67861;SDS011;54665;51.462;6.698;2024-02-16T00:44:39;4.77;;;1.60;;
67861;SDS011;54665;51.462;6.698;2024-02-16T00:46:39;4.63;;;1.53;;
67861;SDS011;54665;51.462;6.698;2024-02-16T00:48:40;4.90;;;1.50;;
67861;SDS011;54665;51.462;6.698;2024-02-16T00:50:40;3.70;;;1.30;;
67861;SDS011;54665;51.462;6.698;2024-02-16T00:52:40;3.67;;;1.70;;
67861;SDS011;54665;51.462;6.698;2024-02-16T00:54:41;4.57;;;1.63;;
67861;SDS011;54665;51.462;6.698;2024-02-16T00:56:41;4.03;;;1.60;;
67861;SDS011;54665;51.462;6.698;2024-02-16T00:58:41;3.93;;;1.57;;
67861;SDS011;54665;51.462;6.698;2024-02-16T01:00:42;4.85;;;1.80;;
67861;SDS011;54665;51.462;6.698;2024-02-16T01:02:42;4.33;;;1.60;;
67861;SDS011;54665;51.462;6.698;2024-02-16T01:04:42;4.07;;;1.60;;
67861;SDS011;54665;51.462;6.698;2024-02-16T01:06:43;6.67;;;2.03;;
67861;SDS011;54665;51.462;6.698;2024-02-16T01:08:43;5.37;;;2.00;;
67861;SDS011;54665;51.462;6.698;2024-02-16T01:10:43;4.70;;;2.00;;
67861;SDS011;54665;51.462;6.698;2024-02-16T01:12:44;6.40;;;2.03;;
67861;SDS011;54665;51.462;6.698;2024-02-16T01:14:44;4.53;;;1.90;;
67861;SDS011;54665;51.462;6.698;2024-02-16T01:16:45;3.77;;;1.80;;
67861;SDS011;54665;51.462;6.698;2024-02-16T01:18:46;5.90;;;1.70;;
67861;SDS011;54665;51.462;6.698;2024-02-16T01:20:46;5.53;;;1.75;;
67861;SDS011;54665;51.462;6.698;2024-02-16T01:22:46;3.90;;;1.87;;
67861;SDS011;54665;51.462;6.698;2024-02-16T01:24:46;5.30;;;1.73;;
67861;SDS011;54665;51.462;6.698;2024-02-16T01:26:47;5.60;;;2.00;;
67861;SDS011;54665;51.462;6.698;2024-02-16T01:28:47;3.70;;;1.57;;
67861;SDS011;54665;51.462;6.698;2024-02-16T01:30:47;7.00;;;1.90;;
67861;SDS011;54665;51.462;6.698;2024-02-16T01:32:48;5.73;;;2.07;;
67861;SDS011;54665;51.462;6.698;2024-02-16T01:34:48;4.40;;;1.70;;
67861;SDS011;54665;51.462;6.698;2024-02-16T01:36:48;6.13;;;2.00;;
67861;SDS011;54665;51.462;6.698;2024-02-16T01:38:48;4.95;;;1.90;;
67861;SDS011;54665;51.462;6.698;2024-02-16T01:40:49;3.83;;;1.83;;
67861;SDS011;54665;51.462;6.698;2024-02-16T01:42:49;5.13;;;1.70;;
67861;SDS011;54665;51.462;6.698;2024-02-16T01:44:49;3.43;;;1.57;;
67861;SDS011;54665;51.462;6.698;2024-02-16T01:46:50;3.60;;;1.60;;
67861;SDS011;54665;51.462;6.698;2024-02-16T01:48:50;3.80;;;1.40;;
67861;SDS011;54665;51.462;6.698;2024-02-16T01:50:51;3.60;;;1.60;;
67861;SDS011;54665;51.462;6.698;2024-02-16T01:52:52;3.08;;;1.60;;
67861;SDS011;54665;51.462;6.698;2024-02-16T01:54:52;4.23;;;1.43;;
67861;SDS011;54665;51.462;6.698;2024-02-16T01:56:52;3.87;;;1.50;;
67861;SDS011;54665;51.462;6.698;2024-02-16T01:58:54;3.67;;;1.52;;
67861;SDS011;54665;51.462;6.698;2024-02-16T02:00:56;5.28;;;1.60;;
67861;SDS011;54665;51.462;6.698;2024-02-16T02:02:56;3.00;;;1.60;;
67861;SDS011;54665;51.462;6.698;2024-02-16T02:04:57;3.90;;;1.60;;
67861;SDS011;54665;51.462;6.698;2024-02-16T02:06:57;3.10;;;1.50;;
67861;SDS011;54665;51.462;6.698;2024-02-16T02:08:57;6.73;;;2.00;;
67861;SDS011;54665;51.462;6.698;2024-02-16T02:10:57;4.77;;;1.43;;
67861;SDS011;54665;51.462;6.698;2024-02-16T02:12:58;4.23;;;1.70;;
67861;SDS011;54665;51.462;6.698;2024-02-16T02:14:58;5.03;;;1.40;;
67861;SDS011;54665;51.462;6.698;2024-02-16T02:16:58;3.20;;;1.30;;
67861;SDS011;54665;51.462;6.698;2024-02-16T02:18:59;4.83;;;1.60;;
67861;SDS011;54665;51.462;6.698;2024-02-16T02:20:59;3.13;;;1.50;;
67861;SDS011;54665;51.462;6.698;2024-02-16T02:23:00;4.03;;;1.50;;
67861;SDS011;54665;51.462;6.698;2024-02-16T02:25:00;4.43;;;1.50;;
67861;SDS011;54665;51.462;6.698;2024-02-16T02:27:00;5.60;;;1.65;;
67861;SDS011;54665;51.462;6.698;2024-02-16T02:29:00;4.47;;;1.43;;
67861;SDS011;54665;51.462;6.698;2024-02-16T02:31:01;3.77;;;1.50;;
67861;SDS011;54665;51.462;6.698;2024-02-16T02:33:01;3.90;;;1.57;;
67861;SDS011;54665;51.462;6.698;2024-02-16T02:35:02;3.80;;;1.53;;
67861;SDS011;54665;51.462;6.698;2024-02-16T02:37:02;5.55;;;1.70;;
67861;SDS011;54665;51.462;6.698;2024-02-16T02:39:03;2.83;;;1.40;;
67861;SDS011;54665;51.462;6.698;2024-02-16T02:41:03;3.77;;;1.53;;
67861;SDS011;54665;51.462;6.698;2024-02-16T02:43:03;5.67;;;1.70;;
67861;SDS011;54665;51.462;6.698;2024-02-16T02:45:04;4.33;;;1.90;;
67861;SDS011;54665;51.462;6.698;2024-02-16T02:47:04;7.63;;;2.22;;
67861;SDS011;54665;51.462;6.698;2024-02-16T02:49:05;3.87;;;1.90;;
67861;SDS011;54665;51.462;6.698;2024-02-16T02:51:05;7.20;;;2.53;;
67861;SDS011;54665;51.462;6.698;2024-02-16T02:53:06;8.68;;;2.90;;
67861;SDS011;54665;51.462;6.698;2024-02-16T02:55:06;7.13;;;2.57;;
67861;SDS011;54665;51.462;6.698;2024-02-16T02:57:06;6.87;;;2.17;;
67861;SDS011;54665;51.462;6.698;2024-02-16T02:59:07;5.53;;;2.23;;
67861;SDS011;54665;51.462;6.698;2024-02-16T03:01:07;4.53;;;2.10;;
67861;SDS011;54665;51.462;6.698;2024-02-16T03:03:07;5.30;;;1.40;;
67861;SDS011;54665;51.462;6.698;2024-02-16T03:05:08;5.57;;;1.80;;
67861;SDS011;54665;51.462;6.698;2024-02-16T03:07:08;4.40;;;1.97;;
67861;SDS011;54665;51.462;6.698;2024-02-16T03:09:08;4.53;;;1.97;;
67861;SDS011;54665;51.462;6.698;2024-02-16T03:11:11;5.28;;;1.80;;
67861;SDS011;54665;51.462;6.698;2024-02-16T03:13:11;3.17;;;1.40;;
67861;SDS011;54665;51.462;6.698;2024-02-16T03:15:11;6.63;;;1.60;;
67861;SDS011;54665;51.462;6.698;2024-02-16T03:17:12;4.60;;;1.70;;
67861;SDS011;54665;51.462;6.698;2024-02-16T03:19:12;5.23;;;1.60;;
67861;SDS011;54665;51.462;6.698;2024-02-16T03:21:13;4.13;;;1.67;;
67861;SDS011;54665;51.462;6.698;2024-02-16T03:23:14;5.72;;;1.77;;
67861;SDS011;54665;51.462;6.698;2024-02-16T03:25:14;6.15;;;1.90;;
67861;SDS011;54665;51.462;6.698;2024-02-16T03:27:15;4.73;;;1.70;;
67861;SDS011;54665;51.462;6.698;2024-02-16T03:29:15;6.13;;;2.13;;
67861;SDS011;54665;51.462;6.698;2024-02-16T03:31:16;4.63;;;1.93;;
67861;SDS011;54665;51.462;6.698;2024-02-16T03:33:21;6.10;;;1.80;;
67861;SDS011;54665;51.462;6.698;2024-02-16T03:35:21;4.43;;;1.60;;
67861;SDS011;54665;51.462;6.698;2024-02-16T03:37:22;4.17;;;1.40;;
67861;SDS011;54665;51.462;6.698;2024-02-16T03:39:22;4.20;;;1.50;;
67861;SDS011;54665;51.462;6.698;2024-02-16T03:41:22;3.40;;;1.70;;
67861;SDS011;54665;51.462;6.698;2024-02-16T03:43:23;5.40;;;1.87;;
67861;SDS011;54665;51.462;6.698;2024-02-16T03:45:23;5.93;;;1.80;;
67861;SDS011;54665;51.462;6.698;2024-02-16T03:47:24;5.05;;;2.17;;
67861;SDS011;54665;51.462;6.698;2024-02-16T03:49:25;7.60;;;2.20;;
67861;SDS011;54665;51.462;6.698;2024-02-16T03:51:25;8.63;;;2.63;;
67861;SDS011;54665;51.462;6.698;2024-02-16T03:53:26;6.65;;;2.50;;
67861;SDS011;54665;51.462;6.698;2024-02-16T03:55:26;5.87;;;2.00;;
67861;SDS011;54665;51.462;6.698;2024-02-16T03:57:26;3.03;;;1.60;;
67861;SDS011;54665;51.462;6.698;2024-02-16T03:59:26;5.27;;;2.00;;
67861;SDS011;54665;51.462;6.698;2024-02-16T04:01:27;5.23;;;2.10;;
67861;SDS011;54665;51.462;6.698;2024-02-16T04:03:27;4.37;;;1.77;;
67861;SDS011;54665;51.462;6.698;2024-02-16T04:05:28;6.47;;;2.03;;
67861;SDS011;54665;51.462;6.698;2024-02-16T04:07:28;4.50;;;1.80;;
67861;SDS011;54665;51.462;6.698;2024-02-16T04:09:28;5.40;;;1.80;;
67861;SDS011;54665;51.462;6.698;2024-02-16T04:11:28;4.40;;;1.87;;
67861;SDS011;54665;51.462;6.698;2024-02-16T04:13:29;4.10;;;1.90;;
67861;SDS011;54665;51.462;6.698;2024-02-16T04:15:29;3.67;;;1.60;;
67861;SDS011;54665;51.462;6.698;2024-02-16T04:17:29;4.73;;;1.80;;
67861;SDS011;54665;51.462;6.698;2024-02-16T04:19:30;4.40;;;1.65;;
67861;SDS011;54665;51.462;6.698;2024-02-16T04:21:30;4.13;;;1.60;;
67861;SDS011;54665;51.462;6.698;2024-02-16T04:23:30;3.27;;;1.50;;
67861;SDS011;54665;51.462;6.698;2024-02-16T04:25:31;4.80;;;1.70;;
67861;SDS011;54665;51.462;6.698;2024-02-16T04:27:31;3.83;;;1.70;;
67861;SDS011;54665;51.462;6.698;2024-02-16T04:29:31;3.53;;;1.50;;
67861;SDS011;54665;51.462;6.698;2024-02-16T04:31:31;5.45;;;1.70;;
67861;SDS011;54665;51.462;6.698;2024-02-16T04:33:32;5.53;;;1.80;;
67861;SDS011;54665;51.462;6.698;2024-02-16T04:35:32;4.47;;;1.97;;
67861;SDS011;54665;51.462;6.698;2024-02-16T04:37:32;5.17;;;2.00;;
67861;SDS011;54665;51.462;6.698;2024-02-16T04:39:32;5.97;;;2.20;;
67861;SDS011;54665;51.462;6.698;2024-02-16T04:41:33;6.43;;;2.23;;
67861;SDS011;54665;51.462;6.698;2024-02-16T04:43:33;4.87;;;2.10;;
67861;SDS011;54665;51.462;6.698;2024-02-16T04:45:34;11.67;;;2.10;;
67861;SDS011;54665;51.462;6.698;2024-02-16T04:47:34;5.37;;;1.70;;
67861;SDS011;54665;51.462;6.698;2024-02-16T04:49:35;4.73;;;1.80;;
67861;SDS011;54665;51.462;6.698;2024-02-16T04:51:35;6.22;;;1.90;;
67861;SDS011;54665;51.462;6.698;2024-02-16T04:53:35;6.03;;;2.13;;
67861;SDS011;54665;51.462;6.698;2024-02-16T04:55:36;5.20;;;2.03;;
67861;SDS011;54665;51.462;6.698;2024-02-16T04:57:36;6.07;;;2.27;;
67861;SDS011;54665;51.462;6.698;2024-02-16T04:59:36;5.67;;;2.00;;
67861;SDS011;54665;51.462;6.698;2024-02-16T05:01:37;5.37;;;2.20;;
67861;SDS011;54665;51.462;6.698;2024-02-16T05:03:37;4.80;;;2.17;;
67861;SDS011;54665;51.462;6.698;2024-02-16T05:05:38;4.47;;;1.90;;
67861;SDS011;54665;51.462;6.698;2024-02-16T05:07:38;5.40;;;2.17;;
67861;SDS011;54665;51.462;6.698;2024-02-16T05:09:38;6.30;;;2.20;;
67861;SDS011;54665;51.462;6.698;2024-02-16T05:11:38;5.00;;;2.03;;
67861;SDS011;54665;51.462;6.698;2024-02-16T05:13:39;5.33;;;2.20;;
67861;SDS011;54665;51.462;6.698;2024-02-16T05:15:39;5.07;;;2.10;;
67861;SDS011;54665;51.462;6.698;2024-02-16T05:17:40;6.30;;;2.00;;
67861;SDS011;54665;51.462;6.698;2024-02-16T05:19:40;7.60;;;2.53;;
67861;SDS011;54665;51.462;6.698;2024-02-16T05:21:40;7.63;;;2.53;;
67861;SDS011;54665;51.462;6.698;2024-02-16T05:23:41;7.80;;;2.70;;
67861;SDS011;54665;51.462;6.698;2024-02-16T05:25:41;6.47;;;2.37;;
67861;SDS011;54665;51.462;6.698;2024-02-16T05:27:41;6.90;;;2.70;;
67861;SDS011;54665;51.462;6.698;2024-02-16T05:29:42;10.43;;;2.53;;
67861;SDS011;54665;51.462;6.698;2024-02-16T05:31:42;5.87;;;2.40;;
67861;SDS011;54665;51.462;6.698;2024-02-16T05:33:43;6.53;;;2.40;;
67861;SDS011;54665;51.462;6.698;2024-02-16T05:35:44;5.22;;;2.30;;
67861;SDS011;54665;51.462;6.698;2024-02-16T05:37:45;5.50;;;2.27;;
67861;SDS011;54665;51.462;6.698;2024-02-16T05:39:49;6.55;;;2.47;;
67861;SDS011;54665;51.462;6.698;2024-02-16T05:41:49;7.53;;;2.80;;
67861;SDS011;54665;51.462;6.698;2024-02-16T05:43:49;6.97;;;2.87;;
67861;SDS011;54665;51.462;6.698;2024-02-16T05:45:49;8.53;;;3.23;;
67861;SDS011;54665;51.462;6.698;2024-02-16T05:47:50;7.73;;;3.10;;
67861;SDS011;54665;51.462;6.698;2024-02-16T05:49:50;8.98;;;3.15;;
67861;SDS011;54665;51.462;6.698;2024-02-16T05:51:51;9.07;;;3.33;;
67861;SDS011;54665;51.462;6.698;2024-02-16T05:53:51;7.60;;;3.00;;
67861;SDS011;54665;51.462;6.698;2024-02-16T05:55:51;8.97;;;3.20;;
67861;SDS011;54665;51.462;6.698;2024-02-16T05:57:52;7.80;;;2.50;;
67861;SDS011;54665;51.462;6.698;2024-02-16T05:59:52;6.07;;;2.63;;
67861;SDS011;54665;51.462;6.698;2024-02-16T06:01:52;7.68;;;2.80;;
67861;SDS011;54665;51.462;6.698;2024-02-16T06:03:53;7.00;;;2.97;;
67861;SDS011;54665;51.462;6.698;2024-02-16T06:05:53;7.17;;;2.70;;
67861;SDS011;54665;51.462;6.698;2024-02-16T06:07:53;9.07;;;2.67;;
67861;SDS011;54665;51.462;6.698;2024-02-16T06:09:57;7.93;;;2.70;;
67861;SDS011;54665;51.462;6.698;2024-02-16T06:11:57;6.55;;;2.50;;
67861;SDS011;54665;51.462;6.698;2024-02-16T06:13:57;6.23;;;2.50;;
67861;SDS011;54665;51.462;6.698;2024-02-16T06:15:58;6.80;;;2.30;;
67861;SDS011;54665;51.462;6.698;2024-02-16T06:17:59;5.53;;;2.20;;
67861;SDS011;54665;51.462;6.698;2024-02-16T06:20:00;7.33;;;2.60;;
67861;SDS011;54665;51.462;6.698;2024-02-16T06:22:01;5.28;;;2.33;;
67861;SDS011;54665;51.462;6.698;2024-02-16T06:24:01;5.47;;;2.50;;
67861;SDS011;54665;51.462;6.698;2024-02-16T06:26:02;8.73;;;2.90;;
67861;SDS011;54665;51.462;6.698;2024-02-16T06:28:02;9.20;;;3.43;;
67861;SDS011;54665;51.462;6.698;2024-02-16T06:30:03;8.43;;;3.08;;
67861;SDS011;54665;51.462;6.698;2024-02-16T06:32:04;9.77;;;3.30;;
67861;SDS011;54665;51.462;6.698;2024-02-16T06:34:04;8.50;;;3.30;;
67861;SDS011;54665;51.462;6.698;2024-02-16T06:36:05;9.70;;;3.63;;
67861;SDS011;54665;51.462;6.698;2024-02-16T06:38:05;9.20;;;3.72;;
67861;SDS011;54665;51.462;6.698;2024-02-16T06:40:06;8.43;;;3.33;;
67861;SDS011;54665;51.462;6.698;2024-02-16T06:42:07;7.45;;;3.05;;
67861;SDS011;54665;51.462;6.698;2024-02-16T06:44:07;7.70;;;2.60;;
67861;SDS011;54665;51.462;6.698;2024-02-16T06:46:07;8.00;;;2.67;;
67861;SDS011;54665;51.462;6.698;2024-02-16T06:48:07;7.23;;;2.70;;
67861;SDS011;54665;51.462;6.698;2024-02-16T06:50:08;5.50;;;2.40;;
67861;SDS011;54665;51.462;6.698;2024-02-16T06:52:08;6.03;;;2.27;;
67861;SDS011;54665;51.462;6.698;2024-02-16T06:54:09;7.13;;;2.63;;
67861;SDS011;54665;51.462;6.698;2024-02-16T06:56:09;5.80;;;2.47;;
67861;SDS011;54665;51.462;6.698;2024-02-16T06:58:10;6.40;;;2.60;;
67861;SDS011;54665;51.462;6.698;2024-02-16T07:00:10;5.10;;;2.20;;
67861;SDS011;54665;51.462;6.698;2024-02-16T07:02:11;5.65;;;2.30;;
67861;SDS011;54665;51.462;6.698;2024-02-16T07:04:11;4.80;;;2.30;;
67861;SDS011;54665;51.462;6.698;2024-02-16T07:06:12;6.23;;;2.37;;
67861;SDS011;54665;51.462;6.698;2024-02-16T07:08:12;8.65;;;2.40;;
67861;SDS011;54665;51.462;6.698;2024-02-16T07:10:12;5.53;;;2.33;;
67861;SDS011;54665;51.462;6.698;2024-02-16T07:12:13;5.90;;;2.60;;
67861;SDS011;54665;51.462;6.698;2024-02-16T07:14:13;6.10;;;2.53;;
67861;SDS011;54665;51.462;6.698;2024-02-16T07:16:13;8.47;;;2.53;;
67861;SDS011;54665;51.462;6.698;2024-02-16T07:18:15;6.50;;;2.60;;
67861;SDS011;54665;51.462;6.698;2024-02-16T07:20:15;8.90;;;2.90;;
67861;SDS011;54665;51.462;6.698;2024-02-16T07:22:15;6.78;;;2.83;;
67861;SDS011;54665;51.462;6.698;2024-02-16T07:24:16;9.37;;;2.90;;
67861;SDS011;54665;51.462;6.698;2024-02-16T07:26:16;7.77;;;3.17;;
67861;SDS011;54665;51.462;6.698;2024-02-16T07:28:16;8.37;;;3.37;;
67861;SDS011;54665;51.462;6.698;2024-02-16T07:30:17;9.83;;;3.50;;
67861;SDS011;54665;51.462;6.698;2024-02-16T07:32:17;8.03;;;3.60;;
67861;SDS011;54665;51.462;6.698;2024-02-16T07:34:18;11.48;;;3.60;;
67861;SDS011;54665;51.462;6.698;2024-02-16T07:36:18;10.90;;;3.63;;
67861;SDS011;54665;51.462;6.698;2024-02-16T07:38:18;9.30;;;3.70;;
67861;SDS011;54665;51.462;6.698;2024-02-16T07:40:18;11.47;;;4.10;;
67861;SDS011;54665;51.462;6.698;2024-02-16T07:42:19;10.98;;;4.40;;
67861;SDS011;54665;51.462;6.698;2024-02-16T07:44:19;10.87;;;4.20;;
67861;SDS011;54665;51.462;6.698;2024-02-16T07:46:20;10.53;;;3.90;;
67861;SDS011;54665;51.462;6.698;2024-02-16T07:48:20;9.67;;;3.40;;
67861;SDS011;54665;51.462;6.698;2024-02-16T07:50:21;9.07;;;4.05;;
67861;SDS011;54665;51.462;6.698;2024-02-16T07:52:22;8.03;;;3.77;;
67861;SDS011;54665;51.462;6.698;2024-02-16T07:54:22;8.70;;;3.85;;
67861;SDS011;54665;51.462;6.698;2024-02-16T07:56:23;12.30;;;3.83;;
67861;SDS011;54665;51.462;6.698;2024-02-16T07:58:23;11.43;;;4.70;;
67861;SDS011;54665;51.462;6.698;2024-02-16T08:00:24;9.77;;;3.87;;
67861;SDS011;54665;51.462;6.698;2024-02-16T08:02:25;9.88;;;3.90;;
67861;SDS011;54665;51.462;6.698;2024-02-16T08:04:25;8.40;;;3.53;;
67861;SDS011;54665;51.462;6.698;2024-02-16T08:06:25;7.87;;;3.30;;
67861;SDS011;54665;51.462;6.698;2024-02-16T08:08:26;6.22;;;2.92;;
67861;SDS011;54665;51.462;6.698;2024-02-16T08:10:26;6.83;;;2.73;;
67861;SDS011;54665;51.462;6.698;2024-02-16T08:12:27;6.18;;;2.65;;
67861;SDS011;54665;51.462;6.698;2024-02-16T08:14:27;5.00;;;2.40;;
67861;SDS011;54665;51.462;6.698;2024-02-16T08:16:27;7.10;;;2.50;;
67861;SDS011;54665;51.462;6.698;2024-02-16T08:18:28;6.70;;;2.50;;
67861;SDS011;54665;51.462;6.698;2024-02-16T08:20:28;6.63;;;2.40;;
67861;SDS011;54665;51.462;6.698;2024-02-16T08:22:28;8.47;;;2.33;;
67861;SDS011;54665;51.462;6.698;2024-02-16T08:24:29;4.93;;;2.13;;
67861;SDS011;54665;51.462;6.698;2024-02-16T08:26:29;5.47;;;2.00;;
67861;SDS011;54665;51.462;6.698;2024-02-16T08:28:29;5.80;;;2.03;;
67861;SDS011;54665;51.462;6.698;2024-02-16T08:30:30;6.27;;;2.40;;
67861;SDS011;54665;51.462;6.698;2024-02-16T08:32:30;5.60;;;2.33;;
67861;SDS011;54665;51.462;6.698;2024-02-16T08:34:30;3.83;;;1.90;;
67861;SDS011;54665;51.462;6.698;2024-02-16T08:36:30;4.90;;;1.83;;
67861;SDS011;54665;51.462;6.698;2024-02-16T08:38:31;6.07;;;2.40;;
67861;SDS011;54665;51.462;6.698;2024-02-16T08:40:31;5.67;;;2.10;;
67861;SDS011;54665;51.462;6.698;2024-02-16T08:42:31;6.93;;;2.20;;
67861;SDS011;54665;51.462;6.698;2024-02-16T08:44:32;4.43;;;2.10;;
67861;SDS011;54665;51.462;6.698;2024-02-16T08:46:32;5.35;;;2.15;;
67861;SDS011;54665;51.462;6.698;2024-02-16T08:48:33;6.10;;;2.27;;
67861;SDS011;54665;51.462;6.698;2024-02-16T08:50:33;6.73;;;2.50;;
67861;SDS011;54665;51.462;6.698;2024-02-16T08:52:33;7.85;;;2.38;;
67861;SDS011;54665;51.462;6.698;2024-02-16T08:54:34;5.50;;;2.40;;
67861;SDS011;54665;51.462;6.698;2024-02-16T08:56:34;4.77;;;1.80;;
67861;SDS011;54665;51.462;6.698;2024-02-16T08:58:35;6.53;;;2.20;;
67861;SDS011;54665;51.462;6.698;2024-02-16T09:00:35;5.77;;;2.40;;
67861;SDS011;54665;51.462;6.698;2024-02-16T09:02:35;5.57;;;2.20;;
67861;SDS011;54665;51.462;6.698;2024-02-16T09:04:35;5.55;;;2.33;;
67861;SDS011;54665;51.462;6.698;2024-02-16T09:06:36;7.03;;;2.40;;
67861;SDS011;54665;51.462;6.698;2024-02-16T09:08:36;4.53;;;2.40;;
67861;SDS011;54665;51.462;6.698;2024-02-16T09:10:36;4.37;;;2.10;;
67861;SDS011;54665;51.462;6.698;2024-02-16T09:12:37;6.27;;;2.20;;
67861;SDS011;54665;51.462;6.698;2024-02-16T09:14:37;5.13;;;2.50;;
67861;SDS011;54665;51.462;6.698;2024-02-16T09:16:37;6.73;;;2.40;;
67861;SDS011;54665;51.462;6.698;2024-02-16T09:18:37;8.70;;;2.60;;
67861;SDS011;54665;51.462;6.698;2024-02-16T09:20:38;6.15;;;2.45;;
67861;SDS011;54665;51.462;6.698;2024-02-16T09:22:40;5.67;;;2.37;;
67861;SDS011;54665;51.462;6.698;2024-02-16T09:24:40;4.85;;;2.20;;
67861;SDS011;54665;51.462;6.698;2024-02-16T09:26:40;5.93;;;2.40;;
67861;SDS011;54665;51.462;6.698;2024-02-16T09:28:41;6.03;;;2.27;;
67861;SDS011;54665;51.462;6.698;2024-02-16T09:30:41;6.80;;;2.73;;
67861;SDS011;54665;51.462;6.698;2024-02-16T09:32:41;5.90;;;2.70;;
67861;SDS011;54665;51.462;6.698;2024-02-16T09:34:42;6.00;;;2.77;;
67861;SDS011;54665;51.462;6.698;2024-02-16T09:36:42;4.88;;;2.47;;
67861;SDS011;54665;51.462;6.698;2024-02-16T09:38:43;4.17;;;2.37;;
67861;SDS011;54665;51.462;6.698;2024-02-16T09:40:43;6.77;;;2.70;;
67861;SDS011;54665;51.462;6.698;2024-02-16T09:42:47;6.53;;;2.30;;
67861;SDS011;54665;51.462;6.698;2024-02-16T09:44:48;6.50;;;2.90;;
67861;SDS011;54665;51.462;6.698;2024-02-16T09:46:49;6.88;;;2.85;;
67861;SDS011;54665;51.462;6.698;2024-02-16T09:48:52;6.75;;;2.47;;
67861;SDS011;54665;51.462;6.698;2024-02-16T09:50:54;5.15;;;2.45;;
67861;SDS011;54665;51.462;6.698;2024-02-16T09:52:56;6.82;;;2.70;;
67861;SDS011;54665;51.462;6.698;2024-02-16T09:54:56;6.00;;;2.70;;
67861;SDS011;54665;51.462;6.698;2024-02-16T09:56:56;6.63;;;2.60;;
67861;SDS011;54665;51.462;6.698;2024-02-16T09:58:57;6.97;;;2.73;;
67861;SDS011;54665;51.462;6.698;2024-02-16T10:00:57;6.47;;;2.93;;
67861;SDS011;54665;51.462;6.698;2024-02-16T10:02:57;6.93;;;2.87;;
67861;SDS011;54665;51.462;6.698;2024-02-16T10:04:58;6.50;;;2.28;;
67861;SDS011;54665;51.462;6.698;2024-02-16T10:06:58;6.77;;;2.80;;
67861;SDS011;54665;51.462;6.698;2024-02-16T10:08:58;6.03;;;2.90;;
67861;SDS011;54665;51.462;6.698;2024-02-16T10:11:02;10.67;;;2.80;;
67861;SDS011;54665;51.462;6.698;2024-02-16T10:13:04;9.43;;;2.53;;
67861;SDS011;54665;51.462;6.698;2024-02-16T10:15:05;6.50;;;2.50;;
67861;SDS011;54665;51.462;6.698;2024-02-16T10:17:05;5.40;;;2.40;;
67861;SDS011;54665;51.462;6.698;2024-02-16T10:19:06;5.97;;;2.40;;
67861;SDS011;54665;51.462;6.698;2024-02-16T10:21:07;5.88;;;2.58;;
67861;SDS011;54665;51.462;6.698;2024-02-16T10:23:11;7.43;;;2.83;;
67861;SDS011;54665;51.462;6.698;2024-02-16T10:25:12;6.40;;;2.35;;
67861;SDS011;54665;51.462;6.698;2024-02-16T10:27:15;5.70;;;2.60;;
67861;SDS011;54665;51.462;6.698;2024-02-16T10:29:17;7.28;;;2.35;;
67861;SDS011;54665;51.462;6.698;2024-02-16T10:31:18;7.57;;;2.60;;
67861;SDS011;54665;51.462;6.698;2024-02-16T10:33:19;4.50;;;2.13;;
67861;SDS011;54665;51.462;6.698;2024-02-16T10:35:20;5.87;;;2.33;;
67861;SDS011;54665;51.462;6.698;2024-02-16T10:37:21;6.90;;;2.50;;
67861;SDS011;54665;51.462;6.698;2024-02-16T10:39:23;5.68;;;2.30;;
67861;SDS011;54665;51.462;6.698;2024-02-16T10:41:27;6.87;;;2.33;;
67861;SDS011;54665;51.462;6.698;2024-02-16T10:43:27;5.53;;;2.22;;
67861;SDS011;54665;51.462;6.698;2024-02-16T10:45:29;7.43;;;2.17;;
67861;SDS011;54665;51.462;6.698;2024-02-16T10:47:31;6.20;;;2.38;;
67861;SDS011;54665;51.462;6.698;2024-02-16T10:49:32;5.53;;;2.20;;
67861;SDS011;54665;51.462;6.698;2024-02-16T10:51:36;8.17;;;2.53;;
67861;SDS011;54665;51.462;6.698;2024-02-16T10:53:39;8.70;;;2.55;;
67861;SDS011;54665;51.462;6.698;2024-02-16T10:55:40;6.20;;;2.30;;
67861;SDS011;54665;51.462;6.698;2024-02-16T10:57:41;5.37;;;2.07;;
67861;SDS011;54665;51.462;6.698;2024-02-16T10:59:42;5.07;;;2.20;;
67861;SDS011;54665;51.462;6.698;2024-02-16T11:01:43;7.03;;;2.27;;
67861;SDS011;54665;51.462;6.698;2024-02-16T11:03:44;5.38;;;2.65;;
67861;SDS011;54665;51.462;6.698;2024-02-16T11:05:45;5.80;;;2.57;;
67861;SDS011;54665;51.462;6.698;2024-02-16T11:07:45;5.80;;;2.63;;
67861;SDS011;54665;51.462;6.698;2024-02-16T11:09:46;7.38;;;2.38;;
67861;SDS011;54665;51.462;6.698;2024-02-16T11:11:51;9.87;;;2.90;;
67861;SDS011;54665;51.462;6.698;2024-02-16T11:13:54;5.63;;;2.40;;
67861;SDS011;54665;51.462;6.698;2024-02-16T11:15:58;8.80;;;2.53;;
67861;SDS011;54665;51.462;6.698;2024-02-16T11:18:00;7.10;;;2.40;;
67861;SDS011;54665;51.462;6.698;2024-02-16T11:20:01;5.80;;;2.70;;
67861;SDS011;54665;51.462;6.698;2024-02-16T11:22:05;7.57;;;2.70;;
67861;SDS011;54665;51.462;6.698;2024-02-16T11:24:08;6.40;;;2.55;;
67861;SDS011;54665;51.462;6.698;2024-02-16T11:26:09;7.20;;;2.70;;
67861;SDS011;54665;51.462;6.698;2024-02-16T11:28:11;9.00;;;2.70;;
67861;SDS011;54665;51.462;6.698;2024-02-16T11:30:13;8.27;;;2.80;;
67861;SDS011;54665;51.462;6.698;2024-02-16T11:32:13;7.60;;;2.87;;
67861;SDS011;54665;51.462;6.698;2024-02-16T11:34:23;8.03;;;2.90;;
67861;SDS011;54665;51.462;6.698;2024-02-16T11:36:23;7.45;;;2.85;;
67861;SDS011;54665;51.462;6.698;2024-02-16T11:38:24;7.07;;;3.10;;
67861;SDS011;54665;51.462;6.698;2024-02-16T11:40:25;5.88;;;2.42;;
67861;SDS011;54665;51.462;6.698;2024-02-16T11:42:25;7.60;;;2.90;;
67861;SDS011;54665;51.462;6.698;2024-02-16T11:44:25;9.53;;;3.50;;
67861;SDS011;54665;51.462;6.698;2024-02-16T11:46:25;10.77;;;3.10;;
67861;SDS011;54665;51.462;6.698;2024-02-16T11:48:26;9.30;;;2.78;;
67861;SDS011;54665;51.462;6.698;2024-02-16T11:50:27;9.90;;;3.60;;
67861;SDS011;54665;51.462;6.698;2024-02-16T11:52:27;10.63;;;3.57;;
67861;SDS011;54665;51.462;6.698;2024-02-16T11:54:27;9.90;;;3.53;;
67861;SDS011;54665;51.462;6.698;2024-02-16T11:56:28;7.87;;;3.30;;
67861;SDS011;54665;51.462;6.698;2024-02-16T11:58:28;7.13;;;3.20;;
67861;SDS011;54665;51.462;6.698;2024-02-16T12:00:30;9.13;;;3.60;;
67861;SDS011;54665;51.462;6.698;2024-02-16T12:02:30;8.90;;;3.40;;
67861;SDS011;54665;51.462;6.698;2024-02-16T12:04:31;10.20;;;3.60;;
67861;SDS011;54665;51.462;6.698;2024-02-16T12:06:31;6.88;;;3.15;;